sensor_id;sensor_type;location;lat;lon;timestamp;P1;durP1;ratioP1;P2;durP2;ratioP2
75535;SDS011;64119;52.070;20.804;2023-04-03T00:01:19;1.40;;;0.80;;
75535;SDS011;64119;52.070;20.804;2023-04-03T00:03:47;2.60;;;0.90;;
75535;SDS011;64119;52.070;20.804;2023-04-03T00:06:15;1.70;;;0.70;;
75535;SDS011;64119;52.070;20.804;2023-04-03T00:08:43;0.90;;;0.60;;
75535;SDS011;64119;52.070;20.804;2023-04-03T00:11:11;0.80;;;0.50;;
75535;SDS011;64119;52.070;20.804;2023-04-03T00:13:39;1.40;;;0.50;;
75535;SDS011;64119;52.070;20.804;2023-04-03T00:16:07;1.90;;;0.90;;
75535;SDS011;64119;52.070;20.804;2023-04-03T00:18:36;1.30;;;0.60;;
75535;SDS011;64119;52.070;20.804;2023-04-03T00:21:05;0.80;;;0.60;;
75535;SDS011;64119;52.070;20.804;2023-04-03T00:23:34;0.90;;;0.40;;
75535;SDS011;64119;52.070;20.804;2023-04-03T00:26:02;2.50;;;0.80;;
75535;SDS011;64119;52.070;20.804;2023-04-03T00:28:30;2.60;;;1.10;;
75535;SDS011;64119;52.070;20.804;2023-04-03T00:30:58;2.00;;;0.80;;
75535;SDS011;64119;52.070;20.804;2023-04-03T00:33:26;1.70;;;0.60;;
75535;SDS011;64119;52.070;20.804;2023-04-03T00:35:54;1.40;;;0.70;;
75535;SDS011;64119;52.070;20.804;2023-04-03T00:38:22;2.70;;;0.80;;
75535;SDS011;64119;52.070;20.804;2023-04-03T00:40:50;1.20;;;0.80;;
75535;SDS011;64119;52.070;20.804;2023-04-03T00:43:22;1.90;;;0.80;;
75535;SDS011;64119;52.070;20.804;2023-04-03T00:45:52;1.10;;;0.50;;
75535;SDS011;64119;52.070;20.804;2023-04-03T00:48:26;2.70;;;0.70;;
75535;SDS011;64119;52.070;20.804;2023-04-03T00:50:58;1.30;;;0.70;;
75535;SDS011;64119;52.070;20.804;2023-04-03T00:54:14;2.90;;;0.80;;
75535;SDS011;64119;52.070;20.804;2023-04-03T00:56:23;1.40;;;0.80;;
75535;SDS011;64119;52.070;20.804;2023-04-03T00:58:59;1.80;;;0.70;;
75535;SDS011;64119;52.070;20.804;2023-04-03T01:01:39;3.40;;;0.80;;
75535;SDS011;64119;52.070;20.804;2023-04-03T01:06:58;1.10;;;0.60;;
75535;SDS011;64119;52.070;20.804;2023-04-03T01:09:33;0.60;;;0.40;;
75535;SDS011;64119;52.070;20.804;2023-04-03T01:12:17;1.90;;;0.40;;
75535;SDS011;64119;52.070;20.804;2023-04-03T01:14:49;1.30;;;0.60;;
75535;SDS011;64119;52.070;20.804;2023-04-03T01:22:41;1.30;;;0.70;;
75535;SDS011;64119;52.070;20.804;2023-04-03T01:25:21;1.70;;;0.50;;
75535;SDS011;64119;52.070;20.804;2023-04-03T01:27:50;1.60;;;0.80;;
75535;SDS011;64119;52.070;20.804;2023-04-03T01:30:19;2.00;;;0.60;;
75535;SDS011;64119;52.070;20.804;2023-04-03T01:32:50;1.10;;;0.40;;
75535;SDS011;64119;52.070;20.804;2023-04-03T01:35:18;2.40;;;0.50;;
75535;SDS011;64119;52.070;20.804;2023-04-03T01:37:46;2.90;;;0.90;;
75535;SDS011;64119;52.070;20.804;2023-04-03T01:40:14;3.10;;;1.00;;
75535;SDS011;64119;52.070;20.804;2023-04-03T01:42:41;1.50;;;0.50;;
75535;SDS011;64119;52.070;20.804;2023-04-03T01:45:09;0.50;;;0.20;;
75535;SDS011;64119;52.070;20.804;2023-04-03T01:47:37;1.10;;;0.50;;
75535;SDS011;64119;52.070;20.804;2023-04-03T01:50:05;2.00;;;0.70;;
75535;SDS011;64119;52.070;20.804;2023-04-03T01:52:34;1.50;;;0.70;;
75535;SDS011;64119;52.070;20.804;2023-04-03T01:55:02;0.60;;;0.20;;
75535;SDS011;64119;52.070;20.804;2023-04-03T01:57:30;0.50;;;0.40;;
75535;SDS011;64119;52.070;20.804;2023-04-03T01:59:58;0.80;;;0.40;;
75535;SDS011;64119;52.070;20.804;2023-04-03T02:02:26;1.20;;;0.50;;
75535;SDS011;64119;52.070;20.804;2023-04-03T02:04:54;1.70;;;0.80;;
75535;SDS011;64119;52.070;20.804;2023-04-03T02:07:22;1.30;;;0.60;;
75535;SDS011;64119;52.070;20.804;2023-04-03T02:09:50;1.10;;;0.60;;
75535;SDS011;64119;52.070;20.804;2023-04-03T02:12:18;2.20;;;0.60;;
75535;SDS011;64119;52.070;20.804;2023-04-03T02:14:46;1.40;;;0.40;;
75535;SDS011;64119;52.070;20.804;2023-04-03T02:17:14;1.10;;;0.70;;
75535;SDS011;64119;52.070;20.804;2023-04-03T02:19:42;1.50;;;0.70;;
75535;SDS011;64119;52.070;20.804;2023-04-03T02:22:10;2.00;;;0.80;;
75535;SDS011;64119;52.070;20.804;2023-04-03T02:24:37;1.10;;;0.40;;
75535;SDS011;64119;52.070;20.804;2023-04-03T02:29:35;0.60;;;0.40;;
75535;SDS011;64119;52.070;20.804;2023-04-03T02:32:04;1.20;;;0.70;;
75535;SDS011;64119;52.070;20.804;2023-04-03T02:34:33;1.70;;;0.70;;
75535;SDS011;64119;52.070;20.804;2023-04-03T02:37:01;1.10;;;0.50;;
75535;SDS011;64119;52.070;20.804;2023-04-03T02:39:29;0.30;;;0.30;;
75535;SDS011;64119;52.070;20.804;2023-04-03T02:41:57;1.10;;;0.60;;
75535;SDS011;64119;52.070;20.804;2023-04-03T02:44:25;1.90;;;0.80;;
75535;SDS011;64119;52.070;20.804;2023-04-03T02:46:53;3.10;;;0.70;;
75535;SDS011;64119;52.070;20.804;2023-04-03T02:49:21;4.10;;;0.60;;
75535;SDS011;64119;52.070;20.804;2023-04-03T02:51:48;0.70;;;0.40;;
75535;SDS011;64119;52.070;20.804;2023-04-03T02:54:16;1.90;;;1.20;;
75535;SDS011;64119;52.070;20.804;2023-04-03T02:56:47;1.00;;;0.50;;
75535;SDS011;64119;52.070;20.804;2023-04-03T02:59:15;0.90;;;0.40;;
75535;SDS011;64119;52.070;20.804;2023-04-03T03:01:44;1.00;;;0.50;;
75535;SDS011;64119;52.070;20.804;2023-04-03T03:04:13;2.10;;;0.70;;
75535;SDS011;64119;52.070;20.804;2023-04-03T03:06:41;1.60;;;0.60;;
75535;SDS011;64119;52.070;20.804;2023-04-03T03:09:11;2.00;;;0.80;;
75535;SDS011;64119;52.070;20.804;2023-04-03T03:11:42;4.50;;;1.20;;
75535;SDS011;64119;52.070;20.804;2023-04-03T03:14:10;0.90;;;0.40;;
75535;SDS011;64119;52.070;20.804;2023-04-03T03:16:38;0.90;;;0.50;;
75535;SDS011;64119;52.070;20.804;2023-04-03T03:19:06;1.80;;;0.80;;
75535;SDS011;64119;52.070;20.804;2023-04-03T03:21:34;1.00;;;0.40;;
75535;SDS011;64119;52.070;20.804;2023-04-03T03:24:02;1.30;;;0.90;;
75535;SDS011;64119;52.070;20.804;2023-04-03T03:26:30;1.20;;;0.50;;
75535;SDS011;64119;52.070;20.804;2023-04-03T03:28:58;1.70;;;0.50;;
75535;SDS011;64119;52.070;20.804;2023-04-03T03:31:26;3.50;;;0.70;;
75535;SDS011;64119;52.070;20.804;2023-04-03T03:33:54;0.50;;;0.30;;
75535;SDS011;64119;52.070;20.804;2023-04-03T03:36:22;3.70;;;0.50;;
75535;SDS011;64119;52.070;20.804;2023-04-03T03:38:50;0.60;;;0.40;;
75535;SDS011;64119;52.070;20.804;2023-04-03T03:41:18;2.70;;;0.60;;
75535;SDS011;64119;52.070;20.804;2023-04-03T03:43:47;1.20;;;0.50;;
75535;SDS011;64119;52.070;20.804;2023-04-03T03:46:15;0.30;;;0.20;;
75535;SDS011;64119;52.070;20.804;2023-04-03T03:48:43;1.10;;;0.60;;
75535;SDS011;64119;52.070;20.804;2023-04-03T03:51:11;3.10;;;0.60;;
75535;SDS011;64119;52.070;20.804;2023-04-03T03:53:39;1.00;;;0.60;;
75535;SDS011;64119;52.070;20.804;2023-04-03T03:56:10;1.30;;;0.70;;
75535;SDS011;64119;52.070;20.804;2023-04-03T03:58:38;1.10;;;0.40;;
75535;SDS011;64119;52.070;20.804;2023-04-03T04:01:06;2.00;;;0.90;;
75535;SDS011;64119;52.070;20.804;2023-04-03T04:03:39;1.20;;;0.50;;
75535;SDS011;64119;52.070;20.804;2023-04-03T04:06:08;1.90;;;0.40;;
75535;SDS011;64119;52.070;20.804;2023-04-03T04:08:37;1.40;;;0.70;;
75535;SDS011;64119;52.070;20.804;2023-04-03T04:11:06;3.10;;;1.10;;
75535;SDS011;64119;52.070;20.804;2023-04-03T04:13:34;2.70;;;0.70;;
75535;SDS011;64119;52.070;20.804;2023-04-03T04:16:03;1.20;;;0.60;;
75535;SDS011;64119;52.070;20.804;2023-04-03T04:18:32;1.80;;;0.40;;
75535;SDS011;64119;52.070;20.804;2023-04-03T04:21:00;0.90;;;0.30;;
75535;SDS011;64119;52.070;20.804;2023-04-03T04:23:28;1.90;;;0.50;;
75535;SDS011;64119;52.070;20.804;2023-04-03T04:25:57;1.20;;;0.60;;
75535;SDS011;64119;52.070;20.804;2023-04-03T04:28:26;1.60;;;0.50;;
75535;SDS011;64119;52.070;20.804;2023-04-03T04:30:54;1.60;;;0.60;;
75535;SDS011;64119;52.070;20.804;2023-04-03T04:33:23;0.50;;;0.50;;
75535;SDS011;64119;52.070;20.804;2023-04-03T04:35:50;1.60;;;0.50;;
75535;SDS011;64119;52.070;20.804;2023-04-03T04:38:20;3.10;;;1.30;;
75535;SDS011;64119;52.070;20.804;2023-04-03T04:40:48;1.20;;;0.70;;
75535;SDS011;64119;52.070;20.804;2023-04-03T04:43:16;2.80;;;0.90;;
75535;SDS011;64119;52.070;20.804;2023-04-03T04:45:45;1.60;;;0.40;;
75535;SDS011;64119;52.070;20.804;2023-04-03T04:48:13;2.20;;;0.60;;
75535;SDS011;64119;52.070;20.804;2023-04-03T04:50:41;1.50;;;0.70;;
75535;SDS011;64119;52.070;20.804;2023-04-03T04:53:09;3.10;;;0.70;;
75535;SDS011;64119;52.070;20.804;2023-04-03T04:55:37;0.20;;;0.20;;
75535;SDS011;64119;52.070;20.804;2023-04-03T04:58:06;4.80;;;0.60;;
75535;SDS011;64119;52.070;20.804;2023-04-03T05:00:35;1.20;;;0.60;;
75535;SDS011;64119;52.070;20.804;2023-04-03T05:03:03;0.30;;;0.20;;
75535;SDS011;64119;52.070;20.804;2023-04-03T05:05:33;2.50;;;0.70;;
75535;SDS011;64119;52.070;20.804;2023-04-03T05:08:02;2.00;;;0.40;;
75535;SDS011;64119;52.070;20.804;2023-04-03T05:10:31;1.30;;;0.60;;
75535;SDS011;64119;52.070;20.804;2023-04-03T05:12:59;3.20;;;1.50;;
75535;SDS011;64119;52.070;20.804;2023-04-03T05:15:27;2.00;;;0.70;;
75535;SDS011;64119;52.070;20.804;2023-04-03T05:17:55;0.90;;;0.60;;
75535;SDS011;64119;52.070;20.804;2023-04-03T05:20:23;3.40;;;0.90;;
75535;SDS011;64119;52.070;20.804;2023-04-03T05:22:52;3.50;;;0.80;;
75535;SDS011;64119;52.070;20.804;2023-04-03T05:25:20;1.90;;;0.90;;
75535;SDS011;64119;52.070;20.804;2023-04-03T05:27:48;0.20;;;0.20;;
75535;SDS011;64119;52.070;20.804;2023-04-03T05:30:16;4.00;;;0.80;;
75535;SDS011;64119;52.070;20.804;2023-04-03T05:32:44;1.50;;;0.80;;
75535;SDS011;64119;52.070;20.804;2023-04-03T05:35:19;2.60;;;0.90;;
75535;SDS011;64119;52.070;20.804;2023-04-03T05:37:48;2.40;;;0.80;;
75535;SDS011;64119;52.070;20.804;2023-04-03T05:40:16;1.80;;;0.90;;
75535;SDS011;64119;52.070;20.804;2023-04-03T05:42:47;1.60;;;0.80;;
75535;SDS011;64119;52.070;20.804;2023-04-03T05:45:16;2.20;;;0.60;;
75535;SDS011;64119;52.070;20.804;2023-04-03T05:47:44;1.80;;;1.00;;
75535;SDS011;64119;52.070;20.804;2023-04-03T05:50:12;1.90;;;0.90;;
75535;SDS011;64119;52.070;20.804;2023-04-03T05:52:41;1.20;;;0.80;;
75535;SDS011;64119;52.070;20.804;2023-04-03T05:55:13;1.50;;;0.80;;
75535;SDS011;64119;52.070;20.804;2023-04-03T05:57:41;1.20;;;0.50;;
75535;SDS011;64119;52.070;20.804;2023-04-03T06:00:11;1.20;;;0.60;;
75535;SDS011;64119;52.070;20.804;2023-04-03T06:02:42;1.10;;;0.50;;
75535;SDS011;64119;52.070;20.804;2023-04-03T06:05:15;0.50;;;0.40;;
75535;SDS011;64119;52.070;20.804;2023-04-03T06:07:43;2.20;;;1.00;;
75535;SDS011;64119;52.070;20.804;2023-04-03T06:10:12;2.30;;;0.60;;
75535;SDS011;64119;52.070;20.804;2023-04-03T06:12:41;3.70;;;0.70;;
75535;SDS011;64119;52.070;20.804;2023-04-03T06:15:09;1.30;;;0.70;;
75535;SDS011;64119;52.070;20.804;2023-04-03T06:17:39;1.20;;;0.70;;
75535;SDS011;64119;52.070;20.804;2023-04-03T06:20:08;2.90;;;0.80;;
75535;SDS011;64119;52.070;20.804;2023-04-03T06:22:37;1.60;;;0.70;;
75535;SDS011;64119;52.070;20.804;2023-04-03T06:25:05;0.70;;;0.50;;
75535;SDS011;64119;52.070;20.804;2023-04-03T06:27:33;1.20;;;0.70;;
75535;SDS011;64119;52.070;20.804;2023-04-03T06:30:01;1.00;;;0.70;;
75535;SDS011;64119;52.070;20.804;2023-04-03T06:32:29;1.10;;;0.50;;
75535;SDS011;64119;52.070;20.804;2023-04-03T06:34:57;0.70;;;0.40;;
75535;SDS011;64119;52.070;20.804;2023-04-03T06:37:25;0.20;;;0.20;;
75535;SDS011;64119;52.070;20.804;2023-04-03T06:39:53;2.40;;;0.70;;
75535;SDS011;64119;52.070;20.804;2023-04-03T06:42:22;1.00;;;0.90;;
75535;SDS011;64119;52.070;20.804;2023-04-03T06:44:59;1.40;;;0.50;;
75535;SDS011;64119;52.070;20.804;2023-04-03T06:47:27;1.20;;;0.50;;
75535;SDS011;64119;52.070;20.804;2023-04-03T06:49:55;0.90;;;0.50;;
75535;SDS011;64119;52.070;20.804;2023-04-03T06:52:23;0.80;;;0.60;;
75535;SDS011;64119;52.070;20.804;2023-04-03T06:54:51;1.50;;;0.60;;
75535;SDS011;64119;52.070;20.804;2023-04-03T06:57:24;2.70;;;0.70;;
75535;SDS011;64119;52.070;20.804;2023-04-03T06:59:52;3.80;;;0.80;;
75535;SDS011;64119;52.070;20.804;2023-04-03T07:02:20;2.20;;;1.10;;
75535;SDS011;64119;52.070;20.804;2023-04-03T07:04:48;7.50;;;2.90;;
75535;SDS011;64119;52.070;20.804;2023-04-03T07:07:16;9.90;;;4.30;;
75535;SDS011;64119;52.070;20.804;2023-04-03T07:09:45;3.10;;;1.80;;
75535;SDS011;64119;52.070;20.804;2023-04-03T07:12:15;13.80;;;5.90;;
75535;SDS011;64119;52.070;20.804;2023-04-03T07:14:43;11.30;;;4.60;;
75535;SDS011;64119;52.070;20.804;2023-04-03T07:17:11;3.90;;;1.80;;
75535;SDS011;64119;52.070;20.804;2023-04-03T07:19:39;3.30;;;1.00;;
75535;SDS011;64119;52.070;20.804;2023-04-03T07:22:06;4.30;;;1.60;;
75535;SDS011;64119;52.070;20.804;2023-04-03T07:24:35;3.70;;;1.00;;
75535;SDS011;64119;52.070;20.804;2023-04-03T07:27:03;3.90;;;0.90;;
75535;SDS011;64119;52.070;20.804;2023-04-03T07:29:31;3.70;;;1.40;;
75535;SDS011;64119;52.070;20.804;2023-04-03T07:31:59;2.50;;;1.10;;
75535;SDS011;64119;52.070;20.804;2023-04-03T07:34:27;6.10;;;2.00;;
75535;SDS011;64119;52.070;20.804;2023-04-03T07:36:55;4.30;;;1.20;;
75535;SDS011;64119;52.070;20.804;2023-04-03T07:39:24;3.50;;;1.10;;
75535;SDS011;64119;52.070;20.804;2023-04-03T07:41:52;5.60;;;1.80;;
75535;SDS011;64119;52.070;20.804;2023-04-03T07:44:20;3.40;;;1.80;;
75535;SDS011;64119;52.070;20.804;2023-04-03T07:46:48;4.40;;;1.80;;
75535;SDS011;64119;52.070;20.804;2023-04-03T07:49:16;12.50;;;4.80;;
75535;SDS011;64119;52.070;20.804;2023-04-03T07:51:45;4.20;;;1.30;;
75535;SDS011;64119;52.070;20.804;2023-04-03T07:54:14;3.20;;;1.20;;
75535;SDS011;64119;52.070;20.804;2023-04-03T07:56:42;1.80;;;1.10;;
75535;SDS011;64119;52.070;20.804;2023-04-03T07:59:10;2.40;;;1.00;;
75535;SDS011;64119;52.070;20.804;2023-04-03T08:01:38;4.00;;;0.80;;
75535;SDS011;64119;52.070;20.804;2023-04-03T08:04:06;4.10;;;1.70;;
75535;SDS011;64119;52.070;20.804;2023-04-03T08:06:34;2.30;;;1.00;;
75535;SDS011;64119;52.070;20.804;2023-04-03T08:09:16;5.40;;;1.40;;
75535;SDS011;64119;52.070;20.804;2023-04-03T08:11:44;4.50;;;1.10;;
75535;SDS011;64119;52.070;20.804;2023-04-03T08:14:13;3.30;;;1.90;;
75535;SDS011;64119;52.070;20.804;2023-04-03T08:16:44;5.30;;;1.40;;
75535;SDS011;64119;52.070;20.804;2023-04-03T08:19:14;2.70;;;1.10;;
75535;SDS011;64119;52.070;20.804;2023-04-03T08:21:55;7.20;;;2.90;;
75535;SDS011;64119;52.070;20.804;2023-04-03T08:24:24;4.30;;;1.50;;
75535;SDS011;64119;52.070;20.804;2023-04-03T08:26:52;3.90;;;1.60;;
75535;SDS011;64119;52.070;20.804;2023-04-03T08:29:20;2.20;;;1.00;;
75535;SDS011;64119;52.070;20.804;2023-04-03T08:31:48;4.50;;;1.70;;
75535;SDS011;64119;52.070;20.804;2023-04-03T08:34:18;3.10;;;1.20;;
75535;SDS011;64119;52.070;20.804;2023-04-03T08:36:46;1.90;;;0.90;;
75535;SDS011;64119;52.070;20.804;2023-04-03T08:39:14;2.90;;;1.30;;
75535;SDS011;64119;52.070;20.804;2023-04-03T08:41:43;1.00;;;0.70;;
75535;SDS011;64119;52.070;20.804;2023-04-03T08:47:23;3.50;;;1.20;;
75535;SDS011;64119;52.070;20.804;2023-04-03T08:49:56;2.10;;;0.90;;
75535;SDS011;64119;52.070;20.804;2023-04-03T08:52:40;2.70;;;1.20;;
75535;SDS011;64119;52.070;20.804;2023-04-03T08:55:23;1.50;;;0.80;;
75535;SDS011;64119;52.070;20.804;2023-04-03T08:58:01;1.40;;;0.90;;
75535;SDS011;64119;52.070;20.804;2023-04-03T09:00:47;2.60;;;0.90;;
75535;SDS011;64119;52.070;20.804;2023-04-03T09:03:18;1.90;;;0.70;;
75535;SDS011;64119;52.070;20.804;2023-04-03T09:05:50;1.60;;;0.70;;
75535;SDS011;64119;52.070;20.804;2023-04-03T09:08:22;1.40;;;0.80;;
75535;SDS011;64119;52.070;20.804;2023-04-03T09:10:52;2.10;;;0.90;;
75535;SDS011;64119;52.070;20.804;2023-04-03T09:13:45;0.90;;;0.60;;
75535;SDS011;64119;52.070;20.804;2023-04-03T09:19:48;1.80;;;0.70;;
75535;SDS011;64119;52.070;20.804;2023-04-03T09:21:47;1.00;;;0.60;;
75535;SDS011;64119;52.070;20.804;2023-04-03T09:24:15;1.90;;;0.90;;
75535;SDS011;64119;52.070;20.804;2023-04-03T09:29:17;1.10;;;0.60;;
75535;SDS011;64119;52.070;20.804;2023-04-03T09:31:48;1.00;;;0.40;;
75535;SDS011;64119;52.070;20.804;2023-04-03T09:34:20;2.40;;;0.70;;
75535;SDS011;64119;52.070;20.804;2023-04-03T09:36:59;1.80;;;0.70;;
75535;SDS011;64119;52.070;20.804;2023-04-03T09:39:54;1.80;;;0.90;;
75535;SDS011;64119;52.070;20.804;2023-04-03T09:42:22;1.20;;;0.70;;
75535;SDS011;64119;52.070;20.804;2023-04-03T09:45:02;4.00;;;0.70;;
75535;SDS011;64119;52.070;20.804;2023-04-03T09:47:33;1.20;;;0.60;;
75535;SDS011;64119;52.070;20.804;2023-04-03T09:50:25;2.10;;;0.70;;
75535;SDS011;64119;52.070;20.804;2023-04-03T09:55:20;3.30;;;0.80;;
75535;SDS011;64119;52.070;20.804;2023-04-03T09:58:01;1.70;;;0.80;;
75535;SDS011;64119;52.070;20.804;2023-04-03T10:00:33;1.30;;;0.40;;
75535;SDS011;64119;52.070;20.804;2023-04-03T10:03:04;1.90;;;0.70;;
75535;SDS011;64119;52.070;20.804;2023-04-03T10:10:46;1.90;;;0.80;;
75535;SDS011;64119;52.070;20.804;2023-04-03T10:13:19;1.60;;;0.70;;
75535;SDS011;64119;52.070;20.804;2023-04-03T10:16:08;1.40;;;0.80;;
75535;SDS011;64119;52.070;20.804;2023-04-03T10:18:44;1.20;;;0.50;;
75535;SDS011;64119;52.070;20.804;2023-04-03T10:21:29;1.30;;;0.70;;
75535;SDS011;64119;52.070;20.804;2023-04-03T10:29:31;2.70;;;1.10;;
75535;SDS011;64119;52.070;20.804;2023-04-03T10:43:24;1.60;;;0.70;;
75535;SDS011;64119;52.070;20.804;2023-04-03T10:46:06;2.20;;;0.70;;
75535;SDS011;64119;52.070;20.804;2023-04-03T10:54:25;1.30;;;0.70;;
75535;SDS011;64119;52.070;20.804;2023-04-03T10:56:57;1.70;;;0.70;;
75535;SDS011;64119;52.070;20.804;2023-04-03T10:59:53;1.20;;;0.60;;
75535;SDS011;64119;52.070;20.804;2023-04-03T11:05:18;1.70;;;0.90;;
75535;SDS011;64119;52.070;20.804;2023-04-03T11:07:55;1.60;;;0.80;;
75535;SDS011;64119;52.070;20.804;2023-04-03T11:13:22;1.80;;;0.80;;
75535;SDS011;64119;52.070;20.804;2023-04-03T11:15:55;1.30;;;0.60;;
75535;SDS011;64119;52.070;20.804;2023-04-03T11:21:24;1.30;;;0.70;;
75535;SDS011;64119;52.070;20.804;2023-04-03T11:24:02;2.10;;;0.90;;
75535;SDS011;64119;52.070;20.804;2023-04-03T11:26:41;1.40;;;0.70;;
75535;SDS011;64119;52.070;20.804;2023-04-03T11:29:11;1.50;;;0.60;;
75535;SDS011;64119;52.070;20.804;2023-04-03T11:34:51;1.50;;;0.80;;
75535;SDS011;64119;52.070;20.804;2023-04-03T11:45:35;2.30;;;0.80;;
75535;SDS011;64119;52.070;20.804;2023-04-03T11:50:51;1.00;;;0.60;;
75535;SDS011;64119;52.070;20.804;2023-04-03T11:58:33;1.60;;;0.80;;
75535;SDS011;64119;52.070;20.804;2023-04-03T12:03:33;0.90;;;0.50;;
75535;SDS011;64119;52.070;20.804;2023-04-03T12:13:38;0.90;;;0.50;;
75535;SDS011;64119;52.070;20.804;2023-04-03T12:29:29;2.20;;;0.90;;
75535;SDS011;64119;52.070;20.804;2023-04-03T12:35:24;1.20;;;0.60;;
75535;SDS011;64119;52.070;20.804;2023-04-03T12:40:52;1.50;;;0.80;;
75535;SDS011;64119;52.070;20.804;2023-04-03T12:46:19;1.70;;;0.60;;
75535;SDS011;64119;52.070;20.804;2023-04-03T12:48:52;1.40;;;0.80;;
75535;SDS011;64119;52.070;20.804;2023-04-03T12:53:58;1.40;;;0.70;;
75535;SDS011;64119;52.070;20.804;2023-04-03T12:56:32;1.10;;;0.60;;
75535;SDS011;64119;52.070;20.804;2023-04-03T13:01:53;1.30;;;0.70;;
75535;SDS011;64119;52.070;20.804;2023-04-03T13:04:30;0.70;;;0.40;;
75535;SDS011;64119;52.070;20.804;2023-04-03T13:06:59;1.40;;;0.60;;
75535;SDS011;64119;52.070;20.804;2023-04-03T13:09:28;0.90;;;0.50;;
75535;SDS011;64119;52.070;20.804;2023-04-03T13:14:30;2.30;;;0.70;;
75535;SDS011;64119;52.070;20.804;2023-04-03T13:17:12;1.00;;;0.80;;
75535;SDS011;64119;52.070;20.804;2023-04-03T13:19:43;0.70;;;0.40;;
75535;SDS011;64119;52.070;20.804;2023-04-03T13:22:25;1.40;;;0.80;;
75535;SDS011;64119;52.070;20.804;2023-04-03T13:25:01;1.40;;;0.50;;
75535;SDS011;64119;52.070;20.804;2023-04-03T13:27:34;1.10;;;0.80;;
75535;SDS011;64119;52.070;20.804;2023-04-03T13:30:03;0.90;;;0.60;;
75535;SDS011;64119;52.070;20.804;2023-04-03T13:32:31;1.30;;;0.70;;
75535;SDS011;64119;52.070;20.804;2023-04-03T13:35:00;1.40;;;0.70;;
75535;SDS011;64119;52.070;20.804;2023-04-03T13:37:53;2.00;;;1.00;;
75535;SDS011;64119;52.070;20.804;2023-04-03T13:40:23;1.80;;;0.50;;
75535;SDS011;64119;52.070;20.804;2023-04-03T13:43:00;2.10;;;0.90;;
75535;SDS011;64119;52.070;20.804;2023-04-03T13:45:30;1.30;;;0.50;;
75535;SDS011;64119;52.070;20.804;2023-04-03T13:50:51;1.20;;;0.50;;
75535;SDS011;64119;52.070;20.804;2023-04-03T13:53:21;1.20;;;0.60;;
75535;SDS011;64119;52.070;20.804;2023-04-03T13:55:57;1.10;;;0.70;;
75535;SDS011;64119;52.070;20.804;2023-04-03T13:58:32;1.60;;;0.70;;
75535;SDS011;64119;52.070;20.804;2023-04-03T14:04:21;1.90;;;0.60;;
75535;SDS011;64119;52.070;20.804;2023-04-03T14:06:55;1.60;;;0.50;;
75535;SDS011;64119;52.070;20.804;2023-04-03T14:09:24;0.90;;;0.60;;
75535;SDS011;64119;52.070;20.804;2023-04-03T14:11:55;2.10;;;0.90;;
75535;SDS011;64119;52.070;20.804;2023-04-03T14:14:29;2.70;;;0.70;;
75535;SDS011;64119;52.070;20.804;2023-04-03T14:17:00;1.60;;;0.70;;
75535;SDS011;64119;52.070;20.804;2023-04-03T14:19:31;1.30;;;0.60;;
75535;SDS011;64119;52.070;20.804;2023-04-03T14:22:10;1.10;;;0.60;;
75535;SDS011;64119;52.070;20.804;2023-04-03T14:24:44;1.20;;;0.70;;
75535;SDS011;64119;52.070;20.804;2023-04-03T14:27:19;1.70;;;0.40;;
75535;SDS011;64119;52.070;20.804;2023-04-03T14:29:48;1.00;;;0.40;;
75535;SDS011;64119;52.070;20.804;2023-04-03T14:32:18;1.10;;;0.60;;
75535;SDS011;64119;52.070;20.804;2023-04-03T14:34:51;1.40;;;0.60;;
75535;SDS011;64119;52.070;20.804;2023-04-03T14:37:22;1.00;;;0.60;;
75535;SDS011;64119;52.070;20.804;2023-04-03T14:39:52;1.10;;;0.40;;
75535;SDS011;64119;52.070;20.804;2023-04-03T14:42:28;0.80;;;0.60;;
75535;SDS011;64119;52.070;20.804;2023-04-03T14:44:58;1.20;;;0.60;;
75535;SDS011;64119;52.070;20.804;2023-04-03T14:47:28;1.40;;;1.00;;
75535;SDS011;64119;52.070;20.804;2023-04-03T14:50:00;1.00;;;0.60;;
75535;SDS011;64119;52.070;20.804;2023-04-03T14:52:33;4.40;;;2.20;;
75535;SDS011;64119;52.070;20.804;2023-04-03T14:55:04;7.60;;;3.70;;
75535;SDS011;64119;52.070;20.804;2023-04-03T14:57:35;26.30;;;13.40;;
75535;SDS011;64119;52.070;20.804;2023-04-03T15:00:04;31.90;;;13.50;;
75535;SDS011;64119;52.070;20.804;2023-04-03T15:02:35;40.90;;;16.20;;
75535;SDS011;64119;52.070;20.804;2023-04-03T15:05:06;10.10;;;4.30;;
75535;SDS011;64119;52.070;20.804;2023-04-03T15:07:37;19.10;;;7.70;;
75535;SDS011;64119;52.070;20.804;2023-04-03T15:12:38;1.80;;;1.00;;
75535;SDS011;64119;52.070;20.804;2023-04-03T15:15:07;1.20;;;0.60;;
75535;SDS011;64119;52.070;20.804;2023-04-03T15:17:35;2.70;;;1.20;;
75535;SDS011;64119;52.070;20.804;2023-04-03T15:20:10;6.10;;;1.70;;
75535;SDS011;64119;52.070;20.804;2023-04-03T15:22:43;22.90;;;7.60;;
75535;SDS011;64119;52.070;20.804;2023-04-03T15:25:11;43.10;;;12.10;;
75535;SDS011;64119;52.070;20.804;2023-04-03T15:27:39;33.00;;;11.30;;
75535;SDS011;64119;52.070;20.804;2023-04-03T15:30:14;26.90;;;7.90;;
75535;SDS011;64119;52.070;20.804;2023-04-03T15:32:44;20.50;;;7.00;;
75535;SDS011;64119;52.070;20.804;2023-04-03T15:35:12;33.90;;;11.10;;
75535;SDS011;64119;52.070;20.804;2023-04-03T15:37:41;19.80;;;7.20;;
75535;SDS011;64119;52.070;20.804;2023-04-03T15:40:09;23.10;;;8.20;;
75535;SDS011;64119;52.070;20.804;2023-04-03T15:42:37;27.20;;;10.80;;
75535;SDS011;64119;52.070;20.804;2023-04-03T15:45:06;21.30;;;7.20;;
75535;SDS011;64119;52.070;20.804;2023-04-03T15:47:35;41.10;;;14.90;;
75535;SDS011;64119;52.070;20.804;2023-04-03T15:50:03;11.00;;;4.80;;
75535;SDS011;64119;52.070;20.804;2023-04-03T15:52:34;14.70;;;5.90;;
75535;SDS011;64119;52.070;20.804;2023-04-03T15:55:02;2.30;;;1.20;;
75535;SDS011;64119;52.070;20.804;2023-04-03T15:57:30;4.70;;;1.70;;
75535;SDS011;64119;52.070;20.804;2023-04-03T16:00:03;3.80;;;2.10;;
75535;SDS011;64119;52.070;20.804;2023-04-03T16:02:33;2.90;;;1.40;;
75535;SDS011;64119;52.070;20.804;2023-04-03T16:05:01;1.90;;;0.90;;
75535;SDS011;64119;52.070;20.804;2023-04-03T16:07:30;3.20;;;0.80;;
75535;SDS011;64119;52.070;20.804;2023-04-03T16:09:58;4.60;;;1.70;;
75535;SDS011;64119;52.070;20.804;2023-04-03T16:12:26;3.50;;;2.00;;
75535;SDS011;64119;52.070;20.804;2023-04-03T16:14:53;2.60;;;1.00;;
75535;SDS011;64119;52.070;20.804;2023-04-03T16:17:21;2.20;;;1.10;;
75535;SDS011;64119;52.070;20.804;2023-04-03T16:19:50;4.80;;;2.00;;
75535;SDS011;64119;52.070;20.804;2023-04-03T16:22:18;3.40;;;1.70;;
75535;SDS011;64119;52.070;20.804;2023-04-03T16:24:46;1.40;;;0.90;;
75535;SDS011;64119;52.070;20.804;2023-04-03T16:27:13;1.30;;;0.90;;
75535;SDS011;64119;52.070;20.804;2023-04-03T16:29:42;2.20;;;1.00;;
75535;SDS011;64119;52.070;20.804;2023-04-03T16:32:09;1.70;;;1.00;;
75535;SDS011;64119;52.070;20.804;2023-04-03T16:34:38;2.20;;;1.40;;
75535;SDS011;64119;52.070;20.804;2023-04-03T16:37:09;2.70;;;1.20;;
75535;SDS011;64119;52.070;20.804;2023-04-03T16:39:37;1.00;;;0.60;;
75535;SDS011;64119;52.070;20.804;2023-04-03T16:42:05;3.00;;;1.30;;
75535;SDS011;64119;52.070;20.804;2023-04-03T16:44:33;2.90;;;1.60;;
75535;SDS011;64119;52.070;20.804;2023-04-03T16:47:01;1.90;;;0.90;;
75535;SDS011;64119;52.070;20.804;2023-04-03T16:49:29;2.60;;;1.30;;
75535;SDS011;64119;52.070;20.804;2023-04-03T16:52:00;2.00;;;1.00;;
75535;SDS011;64119;52.070;20.804;2023-04-03T16:54:30;1.30;;;0.70;;
75535;SDS011;64119;52.070;20.804;2023-04-03T16:56:59;1.30;;;0.90;;
75535;SDS011;64119;52.070;20.804;2023-04-03T16:59:28;2.00;;;1.10;;